createdAt,value
2019-02-21T00:00:04.496Z,102302.09
2019-02-21T00:02:33.527Z,102304.25
2019-02-21T00:05:02.560Z,102295.00
2019-02-21T00:07:31.833Z,102297.52
2019-02-21T00:10:00.854Z,102306.33
2019-02-21T00:12:30.848Z,102304.47
2019-02-21T00:15:00.319Z,102308.80
2019-02-21T00:17:29.824Z,102319.31
2019-02-21T00:19:59.472Z,102313.50
2019-02-21T00:22:29.148Z,102311.08
2019-02-21T00:24:58.256Z,102309.02
2019-02-21T00:27:27.319Z,102311.06
2019-02-21T00:29:56.334Z,102302.03
2019-02-21T00:32:25.372Z,102315.66
2019-02-21T00:34:55.275Z,102309.42
2019-02-21T00:37:24.774Z,102314.27
2019-02-21T00:39:53.842Z,102320.48
2019-02-21T00:42:23.132Z,102327.88
2019-02-21T00:44:52.150Z,102324.83
2019-02-21T00:47:21.913Z,102327.52
2019-02-21T00:49:51.568Z,102324.27
2019-02-21T00:52:20.958Z,102325.80
2019-02-21T00:54:50.290Z,102321.87
2019-02-21T00:57:19.318Z,102333.12
2019-02-21T00:59:50.743Z,102337.72
2019-02-21T01:02:19.161Z,102335.59
2019-02-21T01:04:48.554Z,102329.06
2019-02-21T01:07:17.662Z,102342.22
2019-02-21T01:09:47.006Z,102335.20
2019-02-21T01:12:16.173Z,102345.86
2019-02-21T01:14:45.505Z,102355.28
2019-02-21T01:17:14.563Z,102356.93
2019-02-21T01:19:43.578Z,102355.41
2019-02-21T01:22:12.964Z,102362.17
2019-02-21T01:24:41.986Z,102362.17
2019-02-21T01:27:11.397Z,102369.78
2019-02-21T01:29:40.776Z,102365.64
2019-02-21T01:32:09.820Z,102374.81
2019-02-21T01:34:39.228Z,102368.84
2019-02-21T01:37:08.582Z,102372.61
2019-02-21T01:39:37.644Z,102370.14
2019-02-21T01:42:07.022Z,102377.03
2019-02-21T01:44:36.087Z,102365.86
2019-02-21T01:47:05.172Z,102367.65
2019-02-21T01:49:34.230Z,102360.58
2019-02-21T01:52:03.572Z,102365.09
2019-02-21T01:54:32.567Z,102362.11
2019-02-21T01:57:01.656Z,102366.38
2019-02-21T01:59:30.699Z,102365.49
2019-02-21T02:01:59.749Z,102367.47
2019-02-21T02:04:28.821Z,102358.77
2019-02-21T02:06:57.849Z,102361.48
2019-02-21T02:09:26.838Z,102364.44
2019-02-21T02:11:55.932Z,102356.50
2019-02-21T02:14:24.978Z,102361.68
2019-02-21T02:16:54.027Z,102363.16
2019-02-21T02:19:23.000Z,102363.28
2019-02-21T02:21:52.386Z,102374.20
2019-02-21T02:24:21.386Z,102361.88
2019-02-21T02:26:50.400Z,102363.02
2019-02-21T02:29:19.449Z,102352.50
2019-02-21T02:31:48.878Z,102359.93
2019-02-21T02:34:18.316Z,102369.23
2019-02-21T02:36:47.379Z,102366.16
2019-02-21T02:39:16.599Z,102354.81
2019-02-21T02:41:45.631Z,102359.15
2019-02-21T02:44:15.402Z,102361.06
2019-02-21T02:46:44.698Z,102367.34
2019-02-21T02:49:13.725Z,102371.32
2019-02-21T02:51:42.759Z,102369.78
2019-02-21T02:54:12.134Z,102363.44
2019-02-21T02:56:41.185Z,102368.53
2019-02-21T02:59:10.238Z,102363.92
2019-02-21T03:01:39.331Z,102370.56
2019-02-21T03:04:08.687Z,102369.63
2019-02-21T03:06:37.734Z,102370.17
2019-02-21T03:09:08.693Z,102366.77
2019-02-21T03:11:38.071Z,102360.91
2019-02-21T03:14:07.083Z,102366.06
2019-02-21T03:16:36.927Z,102361.88
2019-02-21T03:19:05.970Z,102363.24
2019-02-21T03:21:35.031Z,102356.63
2019-02-21T03:24:04.045Z,102361.39
2019-02-21T03:26:33.460Z,102357.23
2019-02-21T03:29:02.474Z,102361.41
2019-02-21T03:31:31.481Z,102359.89
2019-02-21T03:34:02.400Z,102354.87
2019-02-21T03:36:31.435Z,102361.06
2019-02-21T03:39:00.765Z,102362.36
2019-02-21T03:41:30.353Z,102354.68
2019-02-21T03:44:01.092Z,102354.68
2019-02-21T03:46:30.145Z,102355.75
2019-02-21T03:48:59.486Z,102349.52
2019-02-21T03:51:28.499Z,102349.77
2019-02-21T03:53:57.519Z,102348.66
2019-02-21T03:56:26.870Z,102349.05
2019-02-21T03:58:55.894Z,102346.41
2019-02-21T04:01:25.311Z,102344.72
2019-02-21T04:03:54.326Z,102338.08
2019-02-21T04:06:23.884Z,102334.67
2019-02-21T04:08:52.871Z,102339.00
2019-02-21T04:11:21.908Z,102340.80
2019-02-21T04:13:50.984Z,102334.55
2019-02-21T04:16:20.689Z,102337.69
2019-02-21T04:18:49.727Z,102330.80
2019-02-21T04:21:18.797Z,102323.51
2019-02-21T04:23:47.807Z,102328.23
2019-02-21T04:26:17.175Z,102330.21
2019-02-21T04:28:46.238Z,102329.38
2019-02-21T04:31:15.239Z,102342.26
2019-02-21T04:33:44.266Z,102339.97
2019-02-21T04:36:13.639Z,102348.14
2019-02-21T04:38:43.089Z,102350.58
2019-02-21T04:41:12.439Z,102348.70
2019-02-21T04:43:41.456Z,102334.66
2019-02-21T04:46:10.505Z,102343.19
2019-02-21T04:48:39.513Z,102344.52
2019-02-21T04:51:08.525Z,102354.19
2019-02-21T04:53:37.850Z,102353.34
2019-02-21T04:56:06.881Z,102359.59
2019-02-21T04:58:35.920Z,102358.66
2019-02-21T05:01:04.970Z,102352.96
2019-02-21T05:03:34.335Z,102363.08
2019-02-21T05:06:03.463Z,102361.08
2019-02-21T05:08:32.484Z,102364.31
2019-02-21T05:11:01.838Z,102365.73
2019-02-21T05:13:33.616Z,102370.02
2019-02-21T05:16:02.287Z,102367.05
2019-02-21T05:18:31.326Z,102368.20
2019-02-21T05:21:00.307Z,102364.98
2019-02-21T05:23:29.341Z,102358.16
2019-02-21T05:25:58.737Z,102356.94
2019-02-21T05:28:32.042Z,102356.27
2019-02-21T05:31:05.601Z,102353.72
2019-02-21T05:33:43.623Z,102365.74
2019-02-21T05:36:28.233Z,102359.69
2019-02-21T05:39:14.032Z,102359.89
2019-02-21T05:42:20.664Z,102360.43
2019-02-21T05:45:10.994Z,102364.41
2019-02-21T05:48:17.964Z,102366.71
2019-02-21T05:51:12.122Z,102371.72
2019-02-21T05:53:51.617Z,102370.69
2019-02-21T05:56:36.147Z,102371.04
2019-02-21T05:59:36.859Z,102371.04
2019-02-21T06:02:25.037Z,102376.73
2019-02-21T06:05:09.751Z,102382.61
2019-02-21T06:07:56.362Z,102382.97
2019-02-21T06:10:49.475Z,102387.89
2019-02-21T06:13:49.418Z,102385.77
2019-02-21T06:16:38.108Z,102382.23
2019-02-21T06:19:29.260Z,102386.30
2019-02-21T06:22:26.446Z,102384.75
2019-02-21T06:25:17.733Z,102377.96
2019-02-21T06:28:11.699Z,102382.69
2019-02-21T06:30:44.789Z,102375.31
2019-02-21T06:33:14.232Z,102392.92
2019-02-21T06:35:43.337Z,102397.14
2019-02-21T06:38:12.763Z,102393.37
2019-02-21T06:40:41.846Z,102396.77
2019-02-21T06:43:11.207Z,102394.68
2019-02-21T06:45:40.261Z,102391.47
2019-02-21T06:48:09.257Z,102404.27
2019-02-21T06:50:38.585Z,102414.20
2019-02-21T06:53:07.611Z,102409.89
2019-02-21T06:55:36.642Z,102405.42
2019-02-21T06:58:06.248Z,102409.14
2019-02-21T07:00:35.263Z,102420.70
2019-02-21T07:03:15.105Z,102435.12
2019-02-21T07:05:36.900Z,102430.56
2019-02-21T07:08:08.672Z,102438.92
2019-02-21T07:10:37.257Z,102434.37
2019-02-21T07:13:06.567Z,102440.34
2019-02-21T07:15:35.974Z,102436.28
2019-02-21T07:18:05.041Z,102436.64
2019-02-21T07:20:34.069Z,102441.77
2019-02-21T07:23:03.084Z,102447.75
2019-02-21T07:25:44.531Z,102454.48
2019-02-21T07:28:15.922Z,102455.05
2019-02-21T07:30:44.489Z,102452.39
2019-02-21T07:33:13.562Z,102446.15
2019-02-21T07:35:42.905Z,102449.34
2019-02-21T07:38:12.296Z,102452.56
2019-02-21T07:40:41.315Z,102454.38
2019-02-21T07:43:12.751Z,102457.13
2019-02-21T07:45:41.093Z,102453.03
2019-02-21T07:48:10.401Z,102462.41
2019-02-21T07:50:39.429Z,102480.43
2019-02-21T07:53:08.879Z,102476.82
2019-02-21T07:55:38.237Z,102471.88
2019-02-21T07:58:07.272Z,102472.34
2019-02-21T08:00:36.285Z,102483.98
2019-02-21T08:03:05.711Z,102482.47
2019-02-21T08:05:34.753Z,102489.14
2019-02-21T08:08:03.763Z,102494.41
2019-02-21T08:10:34.106Z,102491.58
2019-02-21T08:13:03.248Z,102494.36
2019-02-21T08:15:32.266Z,102497.57
2019-02-21T08:18:01.317Z,102507.63
2019-02-21T08:20:34.051Z,102511.25
2019-02-21T08:23:03.053Z,102511.95
2019-02-21T08:25:32.574Z,102503.85
2019-02-21T08:28:01.928Z,102515.64
2019-02-21T08:30:33.040Z,102518.50
2019-02-21T08:33:15.484Z,102523.72
2019-02-21T08:35:44.486Z,102521.86
2019-02-21T08:38:13.513Z,102520.52
2019-02-21T08:40:42.818Z,102526.58
2019-02-21T08:43:12.357Z,102529.49
2019-02-21T08:45:41.706Z,102534.47
2019-02-21T08:48:13.385Z,102541.45
2019-02-21T08:50:41.827Z,102540.00
2019-02-21T08:53:12.933Z,102545.03
2019-02-21T08:55:41.591Z,102547.95
2019-02-21T08:58:10.989Z,102545.20
2019-02-21T09:00:40.040Z,102539.22
2019-02-21T09:03:09.064Z,102537.32
2019-02-21T09:05:38.086Z,102525.17
2019-02-21T09:08:07.464Z,102533.41
2019-02-21T09:10:36.769Z,102530.93
2019-02-21T09:13:05.839Z,102542.10
2019-02-21T09:15:34.871Z,102566.28
2019-02-21T09:18:03.905Z,102566.91
2019-02-21T09:20:33.563Z,102565.80
2019-02-21T09:23:02.573Z,102565.72
2019-02-21T09:25:31.583Z,102566.93
2019-02-21T09:28:00.962Z,102570.00
2019-02-21T09:30:30.355Z,102574.07
2019-02-21T09:32:59.754Z,102574.07
2019-02-21T09:35:28.825Z,102579.00
2019-02-21T09:37:58.769Z,102581.84
2019-02-21T09:40:28.649Z,102586.72
2019-02-21T09:42:57.894Z,102579.77
2019-02-21T09:45:27.274Z,102583.73
2019-02-21T09:47:56.677Z,102587.59
2019-02-21T09:50:25.724Z,102584.22
2019-02-21T09:52:54.744Z,102589.94
2019-02-21T09:55:23.785Z,102586.74
2019-02-21T09:57:52.814Z,102581.52
2019-02-21T10:00:22.213Z,102589.44
2019-02-21T10:02:55.767Z,102592.68
2019-02-21T10:05:22.318Z,102586.62
2019-02-21T10:07:51.757Z,102587.73
2019-02-21T10:10:21.109Z,102591.38
2019-02-21T10:12:50.117Z,102584.11
2019-02-21T10:15:19.159Z,102597.86
2019-02-21T10:17:50.753Z,102590.72
2019-02-21T10:20:19.816Z,102602.52
2019-02-21T10:22:49.146Z,102597.31
2019-02-21T10:25:22.923Z,102597.40
2019-02-21T10:27:51.559Z,102587.14
2019-02-21T10:30:21.314Z,102584.71
2019-02-21T10:32:51.013Z,102583.04
2019-02-21T10:35:20.024Z,102577.08
2019-02-21T10:37:49.459Z,102564.53
2019-02-21T10:40:18.482Z,102547.74
2019-02-21T10:42:47.947Z,102543.41
2019-02-21T10:45:18.233Z,102542.17
2019-02-21T10:47:47.305Z,102531.34
2019-02-21T10:50:17.875Z,102532.88
2019-02-21T10:52:47.214Z,102528.24
2019-02-21T10:55:17.656Z,102533.73
2019-02-21T10:57:46.717Z,102540.95
2019-02-21T11:00:21.322Z,102533.71
2019-02-21T11:02:50.385Z,102535.06
2019-02-21T11:05:19.499Z,102545.33
2019-02-21T11:07:48.519Z,102540.34
2019-02-21T11:10:19.647Z,102547.05
2019-02-21T11:12:49.038Z,102542.89
2019-02-21T11:15:18.475Z,102542.09
2019-02-21T11:17:47.551Z,102548.85
2019-02-21T11:20:17.168Z,102543.55
2019-02-21T11:22:46.200Z,102555.54
2019-02-21T11:25:15.599Z,102549.30
2019-02-21T11:27:44.769Z,102559.55
2019-02-21T11:30:15.964Z,102563.38
2019-02-21T11:32:45.003Z,102561.92
2019-02-21T11:35:14.665Z,102561.77
2019-02-21T11:37:46.831Z,102556.81
2019-02-21T11:40:15.349Z,102549.35
2019-02-21T11:42:44.964Z,102546.14
2019-02-21T11:45:15.685Z,102539.16
2019-02-21T11:47:45.074Z,102552.66
2019-02-21T11:50:15.664Z,102553.48
2019-02-21T11:52:44.710Z,102561.45
2019-02-21T11:55:16.794Z,102552.63
2019-02-21T11:57:45.877Z,102552.78
2019-02-21T12:00:20.329Z,102544.77
2019-02-21T12:02:49.367Z,102551.50
2019-02-21T12:05:30.231Z,102552.52
2019-02-21T12:07:49.560Z,102551.60
2019-02-21T12:10:18.681Z,102551.36
2019-02-21T12:12:47.691Z,102553.83
2019-02-21T12:15:17.193Z,102551.50
2019-02-21T12:17:46.569Z,102552.33
2019-02-21T12:20:15.722Z,102551.59
2019-02-21T12:22:45.090Z,102546.28
2019-02-21T12:25:15.265Z,102554.98
2019-02-21T12:27:44.334Z,102547.72
2019-02-21T12:30:15.576Z,102553.45
2019-02-21T12:32:44.602Z,102549.20
2019-02-21T12:35:14.236Z,102550.06
2019-02-21T12:37:43.553Z,102553.02
2019-02-21T12:40:14.922Z,102550.51
2019-02-21T12:42:44.680Z,102540.95
2019-02-21T12:45:15.487Z,102542.34
2019-02-21T12:47:51.002Z,102544.20
2019-02-21T12:50:15.837Z,102545.61
2019-02-21T12:52:45.269Z,102541.25
2019-02-21T12:55:26.516Z,102546.99
2019-02-21T12:57:45.661Z,102544.00
2019-02-21T13:00:18.979Z,102540.66
2019-02-21T13:02:47.944Z,102545.65
2019-02-21T13:05:17.063Z,102552.12
2019-02-21T13:07:47.058Z,102552.56
2019-02-21T13:10:17.605Z,102551.14
2019-02-21T13:12:46.986Z,102551.39
2019-02-21T13:15:16.793Z,102550.05
2019-02-21T13:17:45.831Z,102556.36
2019-02-21T13:20:15.455Z,102550.62
2019-02-21T13:22:44.456Z,102557.73
2019-02-21T13:25:14.017Z,102560.33
2019-02-21T13:27:43.051Z,102556.17
2019-02-21T13:30:14.113Z,102551.05
2019-02-21T13:32:43.127Z,102545.40
2019-02-21T13:35:12.296Z,102546.98
2019-02-21T13:37:41.378Z,102544.63
2019-02-21T13:40:12.096Z,102541.87
2019-02-21T13:42:41.184Z,102548.42
2019-02-21T13:45:11.006Z,102542.83
2019-02-21T13:47:40.408Z,102547.80
2019-02-21T13:50:12.370Z,102559.19
2019-02-21T13:52:41.717Z,102555.17
2019-02-21T13:55:11.148Z,102544.19
2019-02-21T13:57:40.571Z,102547.78
2019-02-21T14:00:12.600Z,102542.83
2019-02-21T14:02:41.880Z,102552.98
2019-02-21T14:05:10.939Z,102549.06
2019-02-21T14:07:39.960Z,102554.79
2019-02-21T14:10:10.177Z,102550.38
2019-02-21T14:12:39.206Z,102547.55
2019-02-21T14:15:10.489Z,102546.14
2019-02-21T14:17:39.551Z,102557.80
2019-02-21T14:20:09.349Z,102547.19
2019-02-21T14:22:38.774Z,102549.92
2019-02-21T14:25:08.554Z,102557.06
2019-02-21T14:27:37.895Z,102557.39
2019-02-21T14:30:08.328Z,102548.89
2019-02-21T14:32:37.358Z,102555.48
2019-02-21T14:35:07.243Z,102555.87
2019-02-21T14:37:36.570Z,102549.65
2019-02-21T14:40:06.393Z,102557.17
2019-02-21T14:42:35.402Z,102554.63
2019-02-21T14:45:05.166Z,102553.73
2019-02-21T14:47:34.197Z,102564.97
2019-02-21T14:50:04.691Z,102574.77
2019-02-21T14:52:34.220Z,102567.62
2019-02-21T14:55:03.227Z,102573.59
2019-02-21T14:57:40.462Z,102575.56
2019-02-21T15:00:03.077Z,102575.03
2019-02-21T15:02:32.382Z,102573.92
2019-02-21T15:05:02.171Z,102565.20
2019-02-21T15:07:31.461Z,102575.00
2019-02-21T15:10:00.556Z,102574.73
2019-02-21T15:12:29.959Z,102577.20
2019-02-21T15:14:59.279Z,102571.56
2019-02-21T15:17:28.313Z,102576.19
2019-02-21T15:19:57.372Z,102577.66
2019-02-21T15:22:26.418Z,102579.02
2019-02-21T15:24:55.422Z,102583.98
2019-02-21T15:27:24.457Z,102592.95
2019-02-21T15:29:53.539Z,102596.27
2019-02-21T15:32:22.565Z,102600.53
2019-02-21T15:34:51.611Z,102599.97
2019-02-21T15:37:20.653Z,102594.56
2019-02-21T15:39:49.672Z,102592.30
2019-02-21T15:42:18.679Z,102595.89
2019-02-21T15:44:48.079Z,102597.35
2019-02-21T15:47:17.086Z,102594.67
2019-02-21T15:49:46.154Z,102595.27
2019-02-21T15:52:22.165Z,102592.41
2019-02-21T15:54:48.414Z,102599.25
2019-02-21T15:57:17.458Z,102604.34
2019-02-21T15:59:46.493Z,102604.48
2019-02-21T16:02:15.512Z,102609.58
2019-02-21T16:04:44.566Z,102608.41
2019-02-21T16:07:13.625Z,102615.19
2019-02-21T16:09:42.646Z,102609.44
2019-02-21T16:12:11.959Z,102612.67
2019-02-21T16:14:41.169Z,102608.11
2019-02-21T16:17:10.536Z,102607.13
2019-02-21T16:19:39.575Z,102609.79
2019-02-21T16:22:08.550Z,102609.00
2019-02-21T16:24:37.976Z,102605.22
2019-02-21T16:27:07.198Z,102606.06
2019-02-21T16:29:36.202Z,102616.58
2019-02-21T16:32:05.240Z,102619.59
2019-02-21T16:34:34.274Z,102617.88
2019-02-21T16:37:03.634Z,102620.88
2019-02-21T16:39:33.028Z,102618.81
2019-02-21T16:42:02.119Z,102615.91
2019-02-21T16:44:31.160Z,102622.42
2019-02-21T16:47:00.498Z,102619.34
2019-02-21T16:49:29.544Z,102622.95
2019-02-21T16:51:58.640Z,102619.80
2019-02-21T16:54:27.684Z,102626.75
2019-02-21T16:56:57.103Z,102631.26
2019-02-21T16:59:26.231Z,102633.84
2019-02-21T17:01:55.286Z,102629.56
2019-02-21T17:04:24.430Z,102634.77
2019-02-21T17:06:53.524Z,102639.23
2019-02-21T17:09:22.567Z,102645.56
2019-02-21T17:11:52.397Z,102651.63
2019-02-21T17:14:21.789Z,102646.09
2019-02-21T17:16:50.797Z,102647.22
2019-02-21T17:19:20.230Z,102654.78
2019-02-21T17:21:49.238Z,102658.02
2019-02-21T17:24:18.292Z,102659.73
2019-02-21T17:26:47.416Z,102659.14
2019-02-21T17:29:16.750Z,102660.94
2019-02-21T17:31:45.845Z,102659.34
2019-02-21T17:34:14.884Z,102660.20
2019-02-21T17:36:44.380Z,102666.12
2019-02-21T17:39:14.103Z,102668.67
2019-02-21T17:41:43.749Z,102674.90
2019-02-21T17:44:12.878Z,102678.75
2019-02-21T17:46:42.952Z,102683.30
2019-02-21T17:49:12.521Z,102689.75
2019-02-21T17:51:42.337Z,102697.99
2019-02-21T17:54:11.399Z,102698.68
2019-02-21T17:56:40.481Z,102692.03
2019-02-21T17:59:09.591Z,102694.72
2019-02-21T18:01:39.633Z,102701.45
2019-02-21T18:04:09.358Z,102709.93
2019-02-21T18:06:39.016Z,102708.86
2019-02-21T18:09:08.437Z,102711.14
2019-02-21T18:11:38.034Z,102723.05
2019-02-21T18:14:07.083Z,102704.82
2019-02-21T18:16:36.643Z,102716.86
2019-02-21T18:19:06.435Z,102728.06
2019-02-21T18:21:35.979Z,102728.48
2019-02-21T18:24:05.008Z,102735.36
2019-02-21T18:26:34.115Z,102740.64
2019-02-21T18:29:03.197Z,102743.86
2019-02-21T18:31:32.250Z,102748.42
2019-02-21T18:34:01.527Z,102740.33
2019-02-21T18:36:31.121Z,102740.33
2019-02-21T18:39:00.363Z,102741.56
2019-02-21T18:41:29.517Z,102747.73
2019-02-21T18:43:59.008Z,102770.73
2019-02-21T18:46:28.690Z,102774.32
2019-02-21T18:48:58.251Z,102768.98
2019-02-21T18:51:27.627Z,102773.13
2019-02-21T18:53:56.644Z,102778.63
2019-02-21T18:56:25.856Z,102773.83
2019-02-21T18:58:55.104Z,102771.45
2019-02-21T19:01:24.787Z,102784.27
2019-02-21T19:03:53.795Z,102788.44
2019-02-21T19:06:23.327Z,102788.44
2019-02-21T19:08:52.514Z,102786.09
2019-02-21T19:11:22.152Z,102790.09
2019-02-21T19:13:51.668Z,102795.16
2019-02-21T19:16:21.064Z,102805.57
2019-02-21T19:18:50.779Z,102809.25
2019-02-21T19:21:20.815Z,102826.97
2019-02-21T19:23:49.904Z,102828.08
2019-02-21T19:26:18.915Z,102834.54
2019-02-21T19:28:47.978Z,102834.17
2019-02-21T19:31:19.354Z,102834.77
2019-02-21T19:33:48.399Z,102833.44
2019-02-21T19:36:17.877Z,102839.25
2019-02-21T19:38:47.326Z,102840.58
2019-02-21T19:41:17.477Z,102844.33
2019-02-21T19:43:47.448Z,102845.89
2019-02-21T19:46:16.543Z,102850.30
2019-02-21T19:48:45.964Z,102850.52
2019-02-21T19:51:15.135Z,102855.81
2019-02-21T19:53:44.297Z,102854.70
2019-02-21T19:56:13.743Z,102866.77
2019-02-21T19:58:42.773Z,102867.16
2019-02-21T20:01:11.878Z,102872.52
2019-02-21T20:03:40.942Z,102865.31
2019-02-21T20:06:10.017Z,102870.06
2019-02-21T20:08:39.094Z,102875.92
2019-02-21T20:11:08.295Z,102874.85
2019-02-21T20:13:37.373Z,102876.53
2019-02-21T20:16:06.475Z,102870.95
2019-02-21T20:18:35.892Z,102871.56
2019-02-21T20:21:05.309Z,102877.67
2019-02-21T20:23:34.843Z,102877.42
2019-02-21T20:26:03.899Z,102871.91
2019-02-21T20:28:33.334Z,102873.98
2019-02-21T20:31:02.586Z,102872.40
2019-02-21T20:33:31.947Z,102871.78
2019-02-21T20:36:01.327Z,102881.06
2019-02-21T20:38:32.286Z,102879.02
2019-02-21T20:41:01.598Z,102888.53
2019-02-21T20:43:30.676Z,102890.93
2019-02-21T20:46:00.098Z,102896.44
2019-02-21T20:48:30.566Z,102886.19
2019-02-21T20:51:01.698Z,102881.55
2019-02-21T20:53:30.943Z,102880.07
2019-02-21T20:56:00.030Z,102883.99
2019-02-21T20:58:29.075Z,102885.68
2019-02-21T21:00:58.797Z,102876.55
2019-02-21T21:03:28.005Z,102891.31
2019-02-21T21:05:57.707Z,102889.84
2019-02-21T21:08:27.254Z,102888.02
2019-02-21T21:10:56.347Z,102897.91
2019-02-21T21:13:25.351Z,102907.66
2019-02-21T21:15:54.500Z,102903.26
2019-02-21T21:18:23.755Z,102911.05
2019-02-21T21:20:53.400Z,102908.02
2019-02-21T21:23:22.477Z,102909.85
2019-02-21T21:25:51.652Z,102912.88
2019-02-21T21:28:20.765Z,102918.59
2019-02-21T21:30:50.208Z,102924.44
2019-02-21T21:33:19.346Z,102928.68
2019-02-21T21:35:48.401Z,102937.85
2019-02-21T21:38:24.037Z,102930.58
2019-02-21T21:40:48.245Z,102934.22
2019-02-21T21:43:17.319Z,102931.07
2019-02-21T21:45:46.827Z,102933.09
2019-02-21T21:48:15.881Z,102930.53
2019-02-21T21:50:51.370Z,102930.58
2019-02-21T21:53:20.501Z,102927.63
2019-02-21T21:55:52.345Z,102924.25
2019-02-21T21:58:27.331Z,102935.05
2019-02-21T22:00:56.411Z,102932.75
2019-02-21T22:03:26.149Z,102928.34
2019-02-21T22:05:55.201Z,102933.20
2019-02-21T22:08:24.281Z,102935.66
2019-02-21T22:10:53.399Z,102935.61
2019-02-21T22:13:22.746Z,102946.33
2019-02-21T22:15:52.146Z,102954.23
2019-02-21T22:18:21.273Z,102957.77
2019-02-21T22:20:50.310Z,102955.20
2019-02-21T22:23:19.375Z,102957.11
2019-02-21T22:25:48.413Z,102963.38
2019-02-21T22:28:17.478Z,102960.92
2019-02-21T22:30:46.499Z,102959.94
2019-02-21T22:33:15.889Z,102952.86
2019-02-21T22:35:45.269Z,102963.67
2019-02-21T22:38:14.464Z,102963.61
2019-02-21T22:40:43.543Z,102962.46
2019-02-21T22:43:12.567Z,102967.95
2019-02-21T22:45:41.609Z,102964.02
2019-02-21T22:48:11.291Z,102966.28
2019-02-21T22:50:40.382Z,102965.45
2019-02-21T22:53:09.454Z,102975.78
2019-02-21T22:55:38.499Z,102978.55
2019-02-21T22:58:07.578Z,102985.48
2019-02-21T23:01:01.660Z,102981.53
2019-02-21T23:03:48.361Z,102986.23
2019-02-21T23:06:56.379Z,102993.80
2019-02-21T23:09:28.279Z,102988.66
2019-02-21T23:11:57.522Z,102993.01
2019-02-21T23:14:26.516Z,102992.37
2019-02-21T23:16:55.596Z,102989.75
2019-02-21T23:19:24.973Z,102993.74
2019-02-21T23:21:54.030Z,102988.08
2019-02-21T23:24:23.382Z,102989.28
2019-02-21T23:26:52.804Z,102989.71
2019-02-21T23:29:21.839Z,102995.00
2019-02-21T23:31:51.225Z,102993.38
2019-02-21T23:34:28.110Z,103005.03
2019-02-21T23:36:57.227Z,103008.53
2019-02-21T23:39:37.530Z,103011.76
2019-02-21T23:41:57.391Z,103018.27
2019-02-21T23:44:26.773Z,103015.01
2019-02-21T23:46:56.157Z,103033.56
2019-02-21T23:49:25.189Z,103026.19
2019-02-21T23:51:54.616Z,103028.52
2019-02-21T23:54:23.954Z,103023.41
2019-02-21T23:56:52.967Z,103026.53
2019-02-21T23:59:22.311Z,103024.79
